Bell Island, Canada
Current Conditions -  °F | °C
As of 2:00 AM on Thursday 23 Oct 2014 (Local Time) from CYYT Reporting Station
Broken Clouds Broken Clouds  
Wind Chill: 36°   Ceiling: 23000
Heat Index: 36°   Visibility: 15mi
Dew Point: 36°   Wind: 2mph
Humidity: 100%   Direction: 190°S
Pressure: 30.45"   Gusts: NA
Location:  47.65°N, 52.93°W
Report Text: CYYT 230400Z 19002KT 15SM FEW018 BKN230 02/02 A3045 RMK SC1CI5 SLP317
Loading
Personal Weather Stations






























Interactive Weather Map
Tropical Storm Tracking
New forecast layout! Learn more

10-Day Weather Forecast

Advertisements
Track Severe Weather on mobile